createdAt,value
2023-12-01T00:16:53.228Z,73.41
2023-12-01T00:19:20.542Z,70.20
2023-12-01T00:21:47.987Z,69.53
2023-12-01T00:24:15.432Z,69.42
2023-12-01T00:26:42.803Z,68.70
2023-12-01T00:29:10.268Z,68.33
2023-12-01T00:31:38.270Z,68.40
2023-12-01T00:34:06.090Z,68.01
2023-12-01T00:36:34.178Z,67.77
2023-12-01T00:39:01.249Z,67.35
2023-12-01T00:41:28.439Z,67.05
2023-12-01T00:43:55.600Z,66.68
2023-12-01T00:46:22.571Z,66.60
2023-12-01T00:48:50.195Z,66.81
2023-12-01T00:51:20.392Z,66.53
2023-12-01T00:53:47.763Z,66.26
2023-12-01T00:56:15.155Z,66.31
2023-12-01T00:58:42.902Z,66.10
2023-12-01T01:01:11.543Z,66.11
2023-12-01T01:03:38.623Z,66.29
2023-12-01T01:06:07.525Z,66.26
2023-12-01T01:08:34.583Z,66.40
2023-12-01T01:11:05.053Z,66.20
2023-12-01T01:13:33.108Z,66.45
2023-12-01T01:16:22.795Z,66.62
2023-12-01T01:21:36.099Z,66.34
2023-12-01T01:24:03.105Z,66.33
2023-12-01T01:26:30.382Z,66.47
2023-12-01T01:28:57.535Z,66.51
2023-12-01T01:31:24.353Z,66.81
2023-12-01T01:33:51.454Z,66.75
2023-12-01T01:36:19.613Z,66.70
2023-12-01T01:38:47.343Z,66.85
2023-12-01T01:41:16.846Z,66.98
2023-12-01T01:43:43.919Z,66.90
2023-12-01T01:46:15.242Z,66.83
2023-12-01T01:48:45.290Z,66.98
2023-12-01T01:51:13.490Z,67.16
2023-12-01T01:53:45.658Z,67.35
2023-12-01T01:56:13.610Z,67.39
2023-12-01T01:58:42.616Z,67.60
2023-12-01T02:01:10.971Z,68.06
2023-12-01T02:03:38.958Z,68.22
2023-12-01T02:06:09.519Z,68.54
2023-12-01T02:08:36.410Z,68.76
2023-12-01T02:11:03.710Z,68.92
2023-12-01T02:13:31.125Z,69.32
2023-12-01T02:16:01.171Z,69.68
2023-12-01T02:18:34.272Z,69.48
2023-12-01T02:21:01.698Z,69.70
2023-12-01T02:23:28.742Z,70.38
2023-12-01T02:26:02.045Z,70.36
2023-12-01T02:28:29.502Z,71.15
2023-12-01T02:30:57.010Z,71.33
2023-12-01T02:33:24.038Z,71.93
2023-12-01T02:35:52.073Z,72.13
2023-12-01T02:38:19.497Z,72.74
2023-12-01T02:40:52.544Z,73.61
2023-12-01T02:43:20.710Z,73.98
2023-12-01T02:45:47.641Z,74.19
2023-12-01T02:48:15.406Z,74.53
2023-12-01T02:50:42.335Z,74.82
2023-12-01T02:53:09.936Z,75.09
2023-12-01T02:55:36.928Z,75.61
2023-12-01T02:58:03.986Z,76.00
2023-12-01T03:00:31.079Z,76.28
2023-12-01T03:02:58.340Z,76.60
2023-12-01T03:05:25.306Z,77.12
2023-12-01T03:07:52.234Z,77.20
2023-12-01T03:10:19.591Z,77.71
2023-12-01T03:12:46.614Z,78.18
2023-12-01T03:15:20.691Z,78.27
2023-12-01T03:17:48.366Z,78.89
2023-12-01T03:20:15.898Z,78.88
2023-12-01T03:22:45.031Z,79.07
2023-12-01T03:25:12.207Z,79.73
2023-12-01T03:27:45.431Z,79.81
2023-12-01T03:30:18.732Z,80.26
2023-12-01T03:32:50.185Z,80.41
2023-12-01T03:35:22.476Z,80.58
2023-12-01T03:37:51.156Z,81.19
2023-12-01T03:40:18.252Z,81.61
2023-12-01T03:42:46.819Z,81.82
2023-12-01T03:45:13.891Z,82.29
2023-12-01T03:47:41.834Z,82.64
2023-12-01T03:50:12.695Z,82.93
2023-12-01T03:52:40.931Z,83.15
2023-12-01T03:55:08.485Z,83.28
2023-12-01T03:57:35.552Z,83.31
2023-12-01T04:00:08.148Z,83.98
2023-12-01T04:02:44.065Z,84.05
2023-12-01T04:05:18.979Z,84.49
2023-12-01T04:07:50.833Z,84.50
2023-12-01T04:10:18.166Z,84.36
2023-12-01T04:12:46.111Z,84.52
2023-12-01T04:15:20.118Z,84.90
2023-12-01T04:17:48.607Z,85.44
2023-12-01T04:20:25.524Z,85.87
2023-12-01T04:22:57.356Z,86.26
2023-12-01T04:25:24.348Z,87.04
2023-12-01T04:27:52.282Z,87.24
2023-12-01T04:30:21.121Z,87.60
2023-12-01T04:32:50.683Z,88.02
2023-12-01T04:35:17.617Z,88.06
2023-12-01T04:37:45.416Z,88.20
2023-12-01T04:40:15.703Z,88.20
2023-12-01T04:42:46.576Z,88.49
2023-12-01T04:45:17.663Z,88.43
2023-12-01T04:47:53.278Z,88.81
2023-12-01T04:50:22.583Z,88.95
2023-12-01T04:52:54.548Z,89.11
2023-12-01T04:55:27.009Z,89.53
2023-12-01T04:57:56.181Z,89.60
2023-12-01T05:00:26.659Z,89.75
2023-12-01T05:03:08.452Z,89.94
2023-12-01T05:05:38.112Z,90.54
2023-12-01T05:08:06.662Z,90.43
2023-12-01T05:10:35.448Z,91.02
2023-12-01T05:13:08.467Z,91.36
2023-12-01T05:15:36.641Z,91.50
2023-12-01T05:18:05.852Z,91.76
2023-12-01T05:20:33.059Z,92.07
2023-12-01T05:23:01.315Z,92.15
2023-12-01T05:25:32.923Z,91.89
2023-12-01T05:28:01.212Z,92.22
2023-12-01T05:30:29.892Z,92.30
2023-12-01T05:32:58.822Z,92.40
2023-12-01T05:35:27.875Z,92.62
2023-12-01T05:37:56.778Z,92.16
2023-12-01T05:40:32.227Z,92.44
2023-12-01T05:43:01.664Z,92.40
2023-12-01T05:45:38.495Z,92.56
2023-12-01T05:48:13.947Z,92.63
2023-12-01T05:50:48.006Z,92.85
2023-12-01T05:53:17.905Z,92.75
2023-12-01T05:55:50.907Z,92.79
2023-12-01T05:58:22.303Z,93.13
2023-12-01T06:00:50.717Z,92.99
2023-12-01T06:03:23.157Z,92.86
2023-12-01T06:05:58.777Z,93.00
2023-12-01T06:08:26.547Z,92.71
2023-12-01T06:10:54.586Z,92.94
2023-12-01T06:13:22.342Z,93.00
2023-12-01T06:15:50.061Z,93.23
2023-12-01T06:18:18.573Z,93.21
2023-12-01T06:20:45.881Z,93.26
2023-12-01T06:23:13.552Z,93.39
2023-12-01T06:25:41.877Z,93.37
2023-12-01T06:28:09.810Z,93.32
2023-12-01T06:30:38.402Z,93.35
2023-12-01T06:33:07.566Z,93.55
2023-12-01T06:35:35.224Z,93.56
2023-12-01T06:38:04.525Z,93.75
2023-12-01T06:40:33.812Z,93.79
2023-12-01T06:43:01.056Z,93.62
2023-12-01T06:45:30.232Z,93.92
2023-12-01T06:47:59.728Z,93.68
2023-12-01T06:50:27.636Z,93.76
2023-12-01T06:52:54.953Z,93.84
2023-12-01T06:55:23.036Z,93.88
2023-12-01T06:57:50.512Z,93.92
2023-12-01T07:00:33.859Z,93.98
2023-12-01T07:03:02.650Z,93.97
2023-12-01T07:05:33.520Z,94.19
2023-12-01T07:08:02.883Z,94.03
2023-12-01T07:10:34.072Z,93.82
2023-12-01T07:13:05.971Z,94.09
2023-12-01T07:15:35.510Z,94.01
2023-12-01T07:18:09.638Z,94.15
2023-12-01T07:20:39.488Z,94.04
2023-12-01T07:23:09.603Z,93.77
2023-12-01T07:25:47.704Z,94.23
2023-12-01T07:28:17.740Z,94.04
2023-12-01T07:30:47.561Z,94.38
2023-12-01T07:33:18.460Z,94.24
2023-12-01T07:35:48.500Z,93.90
2023-12-01T07:38:19.537Z,94.24
2023-12-01T07:40:49.268Z,94.40
2023-12-01T07:43:20.585Z,94.22
2023-12-01T07:45:51.554Z,94.45
2023-12-01T07:48:24.680Z,94.67
2023-12-01T07:50:55.826Z,94.67
2023-12-01T07:53:25.739Z,94.61
2023-12-01T07:55:55.615Z,94.58
2023-12-01T07:58:26.701Z,94.85
2023-12-01T08:01:01.789Z,95.21
2023-12-01T08:03:32.670Z,95.31
2023-12-01T08:12:28.091Z,95.45
2023-12-01T08:14:59.677Z,96.12
2023-12-01T08:17:28.443Z,96.33
2023-12-01T08:19:57.843Z,96.73
2023-12-01T08:22:26.680Z,96.82
2023-12-01T08:24:56.205Z,97.05
2023-12-01T08:27:25.663Z,97.17
2023-12-01T08:29:54.549Z,97.23
2023-12-01T08:32:25.442Z,97.23
2023-12-01T08:34:57.461Z,97.58
2023-12-01T08:37:33.144Z,97.85
2023-12-01T08:40:05.618Z,97.70
2023-12-01T08:42:36.695Z,97.94
2023-12-01T08:45:09.197Z,98.04
2023-12-01T08:47:40.173Z,98.37
2023-12-01T08:50:11.397Z,98.76
2023-12-01T08:52:44.744Z,98.92
2023-12-01T08:55:14.304Z,98.97
2023-12-01T08:57:44.438Z,98.98
2023-12-01T09:00:21.323Z,98.98
2023-12-01T09:02:52.127Z,98.88
2023-12-01T09:05:23.268Z,98.87
2023-12-01T09:07:55.094Z,98.70
2023-12-01T09:10:25.693Z,98.54
2023-12-01T09:13:00.853Z,98.62
2023-12-01T09:15:32.791Z,98.66
2023-12-01T09:18:00.628Z,98.35
2023-12-01T09:20:28.375Z,98.30
2023-12-01T09:22:56.154Z,98.37
2023-12-01T09:25:29.736Z,98.04
2023-12-01T09:27:58.083Z,98.05
2023-12-01T09:30:25.814Z,97.68
2023-12-01T09:32:53.240Z,97.56
2023-12-01T09:35:54.060Z,97.34
2023-12-01T09:38:11.818Z,97.33
2023-12-01T09:40:41.849Z,97.23
2023-12-01T09:43:09.072Z,97.03
2023-12-01T09:45:36.898Z,96.81
2023-12-01T09:48:05.193Z,96.39
2023-12-01T09:50:32.439Z,96.36
2023-12-01T09:52:59.581Z,96.07
2023-12-01T09:55:26.615Z,95.86
2023-12-01T09:57:53.854Z,95.95
2023-12-01T10:00:22.397Z,95.73
2023-12-01T10:02:50.603Z,95.66
2023-12-01T10:05:21.111Z,95.72
2023-12-01T10:07:53.532Z,95.64
2023-12-01T10:10:23.204Z,95.50
2023-12-01T10:13:06.288Z,95.67
2023-12-01T10:15:35.020Z,95.28
2023-12-01T10:18:16.561Z,95.24
2023-12-01T10:20:58.506Z,94.63
2023-12-01T10:23:26.099Z,94.26
2023-12-01T10:25:53.308Z,94.15
2023-12-01T10:28:21.623Z,94.01
2023-12-01T10:30:55.993Z,93.79
2023-12-01T10:33:23.995Z,93.38
2023-12-01T10:36:18.404Z,92.93
2023-12-01T10:38:45.679Z,92.39
2023-12-01T10:41:12.972Z,92.06
2023-12-01T10:43:40.247Z,92.04
2023-12-01T10:46:07.971Z,91.84
2023-12-01T10:48:35.837Z,91.72
2023-12-01T10:51:06.772Z,91.74
2023-12-01T10:53:35.466Z,91.28
2023-12-01T10:56:05.097Z,90.88
2023-12-01T10:58:35.344Z,90.75
2023-12-01T11:01:04.323Z,90.39
2023-12-01T11:03:35.432Z,90.21
2023-12-01T11:06:13.470Z,89.82
2023-12-01T11:08:48.845Z,89.47
2023-12-01T11:11:39.688Z,89.18
2023-12-01T11:14:18.097Z,89.32
2023-12-01T11:16:47.888Z,88.73
2023-12-01T11:19:18.993Z,88.78
2023-12-01T11:21:50.192Z,88.92
2023-12-01T11:24:31.952Z,88.04
2023-12-01T11:27:06.486Z,87.24
2023-12-01T11:29:39.833Z,86.94
2023-12-01T11:32:08.092Z,86.66
2023-12-01T11:34:35.527Z,86.49
2023-12-01T11:37:07.449Z,86.25
2023-12-01T11:39:35.476Z,86.05
2023-12-01T11:42:03.037Z,85.59
2023-12-01T11:44:41.507Z,85.44
2023-12-01T11:47:15.306Z,85.00
2023-12-01T11:49:45.445Z,84.94
2023-12-01T11:52:24.861Z,84.84
2023-12-01T11:54:56.575Z,84.66
2023-12-01T11:57:27.700Z,84.33
2023-12-01T12:00:00.937Z,84.46
2023-12-01T12:02:32.350Z,84.59
2023-12-01T12:05:08.468Z,84.98
2023-12-01T12:07:39.572Z,84.80
2023-12-01T12:10:19.372Z,84.62
2023-12-01T12:12:49.290Z,84.50
2023-12-01T12:15:25.132Z,84.54
2023-12-01T12:17:53.551Z,84.37
2023-12-01T12:20:25.422Z,84.27
2023-12-01T12:24:47.830Z,86.03
2023-12-01T12:27:21.062Z,84.42
2023-12-01T12:29:54.381Z,84.13
2023-12-01T12:32:24.534Z,84.34
2023-12-01T12:34:55.914Z,84.42
2023-12-01T12:37:27.544Z,84.71
2023-12-01T12:39:59.375Z,84.68
2023-12-01T12:42:32.075Z,84.73
2023-12-01T12:45:06.880Z,84.53
2023-12-01T12:55:41.765Z,84.80
2023-12-01T12:58:14.831Z,84.61
2023-12-01T13:01:06.346Z,84.46
2023-12-01T13:03:35.118Z,83.81
2023-12-01T13:06:04.209Z,84.04
2023-12-01T13:09:00.946Z,84.64
2023-12-01T13:11:35.203Z,84.90
2023-12-01T13:14:17.604Z,84.59
2023-12-01T13:16:55.419Z,84.63
2023-12-01T13:19:26.150Z,84.56
2023-12-01T13:22:23.336Z,84.70
2023-12-01T13:24:51.242Z,84.84
2023-12-01T13:27:20.390Z,84.50
2023-12-01T13:29:48.534Z,84.49
2023-12-01T13:32:20.195Z,84.50
2023-12-01T13:34:50.390Z,84.52
2023-12-01T13:44:05.843Z,84.30
2023-12-01T13:46:48.594Z,84.28
2023-12-01T13:49:18.891Z,84.53
2023-12-01T13:51:50.633Z,84.68
2023-12-01T13:54:21.052Z,84.79
2023-12-01T13:56:52.399Z,84.70
2023-12-01T13:59:27.732Z,84.31
2023-12-01T14:01:57.774Z,84.37
2023-12-01T14:04:31.576Z,84.13
2023-12-01T14:07:09.681Z,84.07
2023-12-01T14:09:40.228Z,84.06
2023-12-01T14:12:15.711Z,84.01
2023-12-01T14:14:47.724Z,83.70
2023-12-01T14:17:40.742Z,83.90
2023-12-01T14:20:41.454Z,83.81
2023-12-01T14:23:44.762Z,83.93
2023-12-01T14:26:15.024Z,84.09
2023-12-01T14:29:04.636Z,84.37
2023-12-01T14:31:41.831Z,84.26
2023-12-01T14:37:21.486Z,84.44
2023-12-01T14:39:51.722Z,84.49
2023-12-01T14:42:22.577Z,84.65
2023-12-01T14:44:56.517Z,84.24
2023-12-01T14:47:29.331Z,84.73
2023-12-01T14:50:07.329Z,84.60
2023-12-01T14:52:36.492Z,84.41
2023-12-01T14:55:09.703Z,84.28
2023-12-01T14:57:52.461Z,83.89
2023-12-01T15:00:22.427Z,84.05
2023-12-01T15:02:52.557Z,84.25
2023-12-01T15:05:25.592Z,84.39
2023-12-01T15:07:57.092Z,84.15
2023-12-01T15:10:28.420Z,83.97
2023-12-01T15:13:14.850Z,83.97
2023-12-01T15:15:52.519Z,83.74
2023-12-01T15:19:17.619Z,83.79
2023-12-01T15:21:55.932Z,84.06
2023-12-01T15:24:23.557Z,83.82
2023-12-01T15:26:51.135Z,84.02
2023-12-01T15:29:18.606Z,83.95
